createdAt,value
2023-03-28T00:02:22.757Z,98366.84
2023-03-28T00:05:07.852Z,98356.31
2023-03-28T00:07:54.096Z,98339.88
2023-03-28T00:10:38.276Z,98368.47
2023-03-28T00:13:23.417Z,98386.56
2023-03-28T00:16:10.596Z,98370.38
2023-03-28T00:18:54.832Z,98363.31
2023-03-28T00:21:41.606Z,98366.19
2023-03-28T00:24:28.195Z,98331.25
2023-03-28T00:27:12.116Z,98358.28
2023-03-28T00:29:56.089Z,98387.19
2023-03-28T00:32:40.091Z,98346.41
2023-03-28T00:35:24.252Z,98404.81
2023-03-28T00:38:08.588Z,98406.53
2023-03-28T00:40:56.285Z,98402.44
2023-03-28T00:43:42.960Z,98386.66
2023-03-28T00:46:33.032Z,98422.59
2023-03-28T00:49:21.460Z,98430.47
2023-03-28T00:52:06.411Z,98406.41
2023-03-28T00:54:50.519Z,98390.22
2023-03-28T00:57:38.362Z,98400.28
2023-03-28T01:00:23.044Z,98382.75
2023-03-28T01:03:08.091Z,98378.81
2023-03-28T01:05:52.566Z,98379.72
2023-03-28T01:08:40.438Z,98418.81
2023-03-28T01:11:26.526Z,98383.84
2023-03-28T01:14:15.433Z,98399.81
2023-03-28T01:16:59.416Z,98399.00
2023-03-28T01:20:00.010Z,98390.22
2023-03-28T01:23:31.486Z,98442.47
2023-03-28T01:26:46.575Z,98454.28
2023-03-28T01:30:14.680Z,98405.53
2023-03-28T01:33:41.614Z,98430.56
2023-03-28T01:37:07.327Z,98462.06
2023-03-28T01:40:26.324Z,98455.75
2023-03-28T01:43:30.441Z,98452.94
2023-03-28T01:46:19.014Z,98414.53
2023-03-28T01:49:10.161Z,98445.69
2023-03-28T01:51:59.653Z,98444.97
2023-03-28T01:54:53.328Z,98430.78
2023-03-28T01:57:46.191Z,98487.97
2023-03-28T02:00:35.184Z,98453.69
2023-03-28T02:03:29.415Z,98448.22
2023-03-28T02:06:32.568Z,98492.06
2023-03-28T02:09:24.055Z,98451.69
2023-03-28T02:12:36.345Z,98469.25
2023-03-28T02:15:28.175Z,98484.38
2023-03-28T02:18:37.094Z,98463.78
2023-03-28T02:22:05.761Z,98510.34
2023-03-28T02:24:52.016Z,98507.84
2023-03-28T02:28:13.996Z,98500.53
2023-03-28T02:31:18.157Z,98535.72
2023-03-28T02:34:03.233Z,98518.25
2023-03-28T02:36:54.492Z,98523.28
2023-03-28T02:39:52.107Z,98544.72
2023-03-28T02:43:10.735Z,98563.59
2023-03-28T02:46:18.804Z,98565.22
2023-03-28T02:49:47.270Z,98569.56
2023-03-28T02:52:52.378Z,98565.06
2023-03-28T02:55:44.710Z,98580.09
2023-03-28T02:58:40.288Z,98579.06
2023-03-28T03:01:29.609Z,98624.88
2023-03-28T03:04:17.407Z,98642.91
2023-03-28T03:07:02.743Z,98610.69
2023-03-28T03:09:54.010Z,98592.72
2023-03-28T03:12:38.920Z,98622.69
2023-03-28T03:15:22.867Z,98623.34
2023-03-28T03:18:16.985Z,98638.06
2023-03-28T03:21:01.848Z,98630.00
2023-03-28T03:23:45.901Z,98681.91
2023-03-28T03:26:31.154Z,98643.00
2023-03-28T03:29:19.975Z,98660.41
2023-03-28T03:32:03.859Z,98625.72
2023-03-28T03:34:58.935Z,98661.00
2023-03-28T03:37:42.847Z,98653.31
2023-03-28T03:40:27.229Z,98616.03
2023-03-28T03:43:11.632Z,98645.25
2023-03-28T03:45:58.039Z,98615.00
2023-03-28T03:48:50.003Z,98656.97
2023-03-28T03:51:35.967Z,98618.94
2023-03-28T03:54:20.048Z,98668.66
2023-03-28T03:57:04.262Z,98622.16
2023-03-28T03:59:48.689Z,98620.72
2023-03-28T04:02:34.732Z,98656.09
2023-03-28T04:05:19.507Z,98684.63
2023-03-28T04:08:17.855Z,98699.84
2023-03-28T04:11:01.858Z,98673.16
2023-03-28T04:13:51.597Z,98673.13
2023-03-28T04:16:40.763Z,98640.09
2023-03-28T04:19:27.560Z,98679.47
2023-03-28T04:22:13.166Z,98742.84
2023-03-28T04:25:05.307Z,98740.41
2023-03-28T04:27:54.833Z,98721.88
2023-03-28T04:30:41.777Z,98741.25
2023-03-28T04:33:46.650Z,98702.59
2023-03-28T04:36:34.050Z,98758.97
2023-03-28T04:39:22.099Z,98729.06
2023-03-28T04:42:27.314Z,98714.97
2023-03-28T04:45:34.121Z,98681.34
2023-03-28T04:48:29.218Z,98771.94
2023-03-28T04:51:13.229Z,98798.06
2023-03-28T04:53:57.975Z,98787.28
2023-03-28T04:57:00.637Z,98741.22
2023-03-28T04:59:56.284Z,98782.97
2023-03-28T05:03:01.346Z,98741.13
2023-03-28T05:05:51.361Z,98798.81
2023-03-28T05:08:35.572Z,98769.81
2023-03-28T05:11:19.618Z,98778.16
2023-03-28T05:14:03.564Z,98811.06
2023-03-28T05:16:56.131Z,98818.25
2023-03-28T05:20:11.228Z,98821.47
2023-03-28T05:23:07.595Z,98832.69
2023-03-28T05:25:56.204Z,98790.34
2023-03-28T05:28:40.619Z,98756.09
2023-03-28T05:31:26.165Z,98772.78
2023-03-28T05:34:25.553Z,98816.88
2023-03-28T05:37:09.536Z,98785.28
2023-03-28T05:40:06.680Z,98817.94
2023-03-28T05:42:52.969Z,98836.09
2023-03-28T05:45:38.113Z,98794.28
2023-03-28T05:48:29.303Z,98826.56
2023-03-28T05:51:15.321Z,98797.03
2023-03-28T05:53:59.333Z,98848.38
2023-03-28T05:56:43.318Z,98820.41
2023-03-28T05:59:27.616Z,98807.53
2023-03-28T06:02:13.483Z,98804.47
2023-03-28T06:04:58.817Z,98832.03
2023-03-28T06:07:45.305Z,98799.16
2023-03-28T06:10:32.242Z,98826.47
2023-03-28T06:13:32.347Z,98761.03
2023-03-28T06:16:16.573Z,98801.00
2023-03-28T06:19:14.393Z,98783.84
2023-03-28T06:22:06.296Z,98744.94
2023-03-28T06:24:51.948Z,98848.13
2023-03-28T06:27:42.756Z,98783.44
2023-03-28T06:30:27.158Z,98800.56
2023-03-28T06:33:12.023Z,98819.44
2023-03-28T06:35:56.495Z,98767.41
2023-03-28T06:38:41.325Z,98822.31
2023-03-28T06:41:26.922Z,98846.63
2023-03-28T06:44:11.337Z,98863.28
2023-03-28T06:47:24.417Z,98852.16
2023-03-28T06:50:10.372Z,98823.41
2023-03-28T06:53:01.392Z,98841.03
2023-03-28T06:55:45.703Z,98859.50
2023-03-28T06:58:31.186Z,98890.63
2023-03-28T07:01:24.250Z,98875.28
2023-03-28T07:04:13.382Z,98868.72
2023-03-28T07:07:02.413Z,98894.53
2023-03-28T07:09:48.989Z,98855.75
2023-03-28T07:12:32.976Z,98889.91
2023-03-28T07:15:19.489Z,98861.75
2023-03-28T07:18:05.554Z,98867.28
2023-03-28T07:20:58.103Z,98898.78
2023-03-28T07:23:48.372Z,98867.78
2023-03-28T07:26:36.761Z,98924.94
2023-03-28T07:29:20.682Z,98919.69
2023-03-28T07:32:07.144Z,98908.97
2023-03-28T07:34:51.188Z,98940.16
2023-03-28T07:37:38.667Z,98933.31
2023-03-28T07:40:48.876Z,98947.56
2023-03-28T07:43:33.110Z,98916.53
2023-03-28T07:46:17.459Z,98942.38
2023-03-28T07:49:02.972Z,98994.16
2023-03-28T07:51:48.074Z,98960.84
2023-03-28T07:54:33.399Z,98965.22
2023-03-28T07:57:18.119Z,99005.31
2023-03-28T08:00:13.164Z,99028.66
2023-03-28T08:02:59.318Z,99031.09
2023-03-28T08:05:51.632Z,99009.06
2023-03-28T08:08:38.069Z,98977.59
2023-03-28T08:11:43.677Z,99012.69
2023-03-28T08:14:27.680Z,98971.72
2023-03-28T08:17:12.736Z,99032.50
2023-03-28T08:19:56.845Z,99034.09
2023-03-28T08:22:48.804Z,99047.63
2023-03-28T08:26:05.157Z,99066.97
2023-03-28T08:28:49.449Z,99051.25
2023-03-28T08:31:33.743Z,99086.34
2023-03-28T08:34:26.450Z,99085.44
2023-03-28T08:37:13.766Z,99117.75
2023-03-28T08:40:01.859Z,99077.50
2023-03-28T08:43:08.279Z,99084.19
2023-03-28T08:45:54.907Z,99058.75
2023-03-28T08:48:42.831Z,99088.28
2023-03-28T08:51:31.596Z,99095.78
2023-03-28T08:54:21.339Z,99097.03
2023-03-28T08:57:11.784Z,99078.22
2023-03-28T09:00:08.892Z,99072.66
2023-03-28T09:02:53.231Z,99075.56
2023-03-28T09:05:48.211Z,99043.69
2023-03-28T09:08:59.500Z,99086.88
2023-03-28T09:11:57.749Z,99088.94
2023-03-28T09:15:16.284Z,99058.31
2023-03-28T09:18:42.656Z,99092.94
2023-03-28T09:21:34.750Z,99059.09
2023-03-28T09:24:43.086Z,99066.97
2023-03-28T09:27:37.762Z,99065.03
2023-03-28T09:30:31.237Z,99054.00
2023-03-28T09:33:21.300Z,99060.41
2023-03-28T09:36:12.317Z,99036.16
2023-03-28T09:39:00.218Z,99054.22
2023-03-28T09:41:53.846Z,99076.97
2023-03-28T09:45:09.234Z,99107.38
2023-03-28T09:48:20.618Z,99083.75
2023-03-28T09:51:07.496Z,99120.91
2023-03-28T09:53:51.448Z,99100.97
2023-03-28T09:56:39.603Z,99088.59
2023-03-28T09:59:37.086Z,99116.06
2023-03-28T10:02:29.225Z,99147.56
2023-03-28T10:05:34.623Z,99165.56
2023-03-28T10:08:29.699Z,99201.41
2023-03-28T10:11:22.892Z,99186.28
2023-03-28T10:14:07.100Z,99184.78
2023-03-28T10:16:53.085Z,99161.66
2023-03-28T10:19:50.204Z,99175.97
2023-03-28T10:22:40.576Z,99168.75
2023-03-28T10:25:37.200Z,99243.63
2023-03-28T10:28:29.627Z,99205.97
2023-03-28T10:31:29.069Z,99227.28
2023-03-28T10:34:28.611Z,99255.91
2023-03-28T10:37:31.984Z,99180.38
2023-03-28T10:40:44.161Z,99226.97
2023-03-28T10:43:49.696Z,99215.72
2023-03-28T10:46:47.199Z,99231.41
2023-03-28T10:49:44.106Z,99264.56
2023-03-28T10:52:36.624Z,99260.34
2023-03-28T10:55:27.546Z,99292.81
2023-03-28T10:58:42.374Z,99245.97
2023-03-28T11:01:47.535Z,99285.00
2023-03-28T11:04:55.224Z,99307.97
2023-03-28T11:07:50.792Z,99262.56
2023-03-28T11:10:50.862Z,99311.28
2023-03-28T11:13:50.916Z,99266.84
2023-03-28T11:16:49.842Z,99292.78
2023-03-28T11:20:24.824Z,99303.41
2023-03-28T11:23:44.984Z,99292.00
2023-03-28T11:27:14.750Z,99266.88
2023-03-28T11:30:21.306Z,99282.47
2023-03-28T11:33:31.053Z,99293.78
2023-03-28T11:36:24.434Z,99269.97
2023-03-28T11:39:16.787Z,99266.84
2023-03-28T11:42:07.410Z,99280.47
2023-03-28T11:45:07.063Z,99253.53
2023-03-28T11:48:05.544Z,99290.53
2023-03-28T11:51:03.125Z,99268.63
2023-03-28T11:54:00.448Z,99298.75
2023-03-28T11:56:55.724Z,99310.16
2023-03-28T12:00:06.698Z,99270.19
2023-03-28T12:03:13.402Z,99285.88
2023-03-28T12:06:08.995Z,99289.41
2023-03-28T12:09:01.545Z,99234.06
2023-03-28T12:11:57.642Z,99327.00
2023-03-28T12:14:52.240Z,99325.97
2023-03-28T12:17:50.561Z,99306.47
2023-03-28T12:20:40.311Z,99290.22
2023-03-28T12:23:39.624Z,99305.81
2023-03-28T12:27:06.029Z,99298.88
2023-03-28T12:29:57.316Z,99320.34
2023-03-28T12:32:48.527Z,99363.25
2023-03-28T12:35:48.547Z,99350.91
2023-03-28T12:38:41.724Z,99379.53
2023-03-28T12:41:41.924Z,99344.88
2023-03-28T12:44:30.227Z,99374.78
2023-03-28T12:47:20.156Z,99355.78
2023-03-28T12:50:09.328Z,99352.59
2023-03-28T12:52:59.156Z,99354.97
2023-03-28T12:55:56.480Z,99362.56
2023-03-28T12:58:41.476Z,99354.69
2023-03-28T13:01:44.630Z,99376.91
2023-03-28T13:05:07.147Z,99400.59
2023-03-28T13:08:05.789Z,99369.38
2023-03-28T13:11:06.796Z,99373.38
2023-03-28T13:13:59.245Z,99374.91
2023-03-28T13:16:47.846Z,99375.59
2023-03-28T13:19:48.792Z,99374.56
2023-03-28T13:22:35.128Z,99385.88
2023-03-28T13:25:27.486Z,99432.53
2023-03-28T13:28:32.520Z,99431.09
2023-03-28T13:31:24.814Z,99428.13
2023-03-28T13:34:22.888Z,99408.00
2023-03-28T13:37:23.153Z,99449.44
2023-03-28T13:40:51.374Z,99455.97
2023-03-28T13:43:43.805Z,99420.50
2023-03-28T13:46:32.500Z,99377.84
2023-03-28T13:49:19.809Z,99455.50
2023-03-28T13:52:08.525Z,99481.47
2023-03-28T13:54:55.205Z,99438.00
2023-03-28T13:57:40.948Z,99484.19
2023-03-28T14:00:44.790Z,99478.94
2023-03-28T14:03:28.943Z,99498.72
2023-03-28T14:06:15.788Z,99492.88
2023-03-28T14:09:02.728Z,99497.94
2023-03-28T14:11:47.390Z,99506.72
2023-03-28T14:14:34.334Z,99521.91
2023-03-28T14:17:23.368Z,99526.94
2023-03-28T14:20:08.856Z,99517.03
2023-03-28T14:23:00.266Z,99540.91
2023-03-28T14:25:45.247Z,99539.66
2023-03-28T14:28:30.800Z,99540.19
2023-03-28T14:31:15.970Z,99549.66
2023-03-28T14:34:05.377Z,99539.00
2023-03-28T14:36:59.019Z,99561.94
2023-03-28T14:39:43.469Z,99562.69
2023-03-28T14:42:32.136Z,99569.34
2023-03-28T14:45:16.148Z,99566.19
2023-03-28T14:48:00.125Z,99570.94
2023-03-28T14:50:47.716Z,99586.78
2023-03-28T14:53:37.810Z,99563.22
2023-03-28T14:56:25.815Z,99590.56
2023-03-28T14:59:12.955Z,99552.56
2023-03-28T15:01:57.332Z,99591.00
2023-03-28T15:04:41.271Z,99591.09
2023-03-28T15:07:29.423Z,99603.50
2023-03-28T15:10:22.408Z,99592.75
2023-03-28T15:13:09.306Z,99606.47
2023-03-28T15:15:57.104Z,99587.47
2023-03-28T15:18:47.159Z,99575.81
2023-03-28T15:21:31.060Z,99598.19
2023-03-28T15:24:19.917Z,99607.03
2023-03-28T15:27:04.521Z,99609.28
2023-03-28T15:29:48.386Z,99604.69
2023-03-28T15:32:32.226Z,99611.38
2023-03-28T15:35:29.297Z,99612.78
2023-03-28T15:38:20.523Z,99617.13
2023-03-28T15:41:19.330Z,99622.81
2023-03-28T15:44:13.364Z,99625.59
2023-03-28T15:47:00.930Z,99636.16
2023-03-28T15:49:45.530Z,99642.00
2023-03-28T15:52:29.799Z,99615.69
2023-03-28T15:55:21.271Z,99627.09
2023-03-28T15:58:07.228Z,99605.84
2023-03-28T16:00:52.881Z,99635.94
2023-03-28T16:03:37.014Z,99642.06
2023-03-28T16:06:31.841Z,99647.16
2023-03-28T16:09:20.011Z,99622.47
2023-03-28T16:12:05.234Z,99654.81
2023-03-28T16:15:11.945Z,99662.44
2023-03-28T16:18:09.256Z,99673.25
2023-03-28T16:21:04.463Z,99680.91
2023-03-28T16:23:48.684Z,99677.34
2023-03-28T16:26:32.516Z,99655.78
2023-03-28T16:29:16.848Z,99680.34
2023-03-28T16:32:02.220Z,99675.88
2023-03-28T16:34:46.193Z,99698.81
2023-03-28T16:37:30.041Z,99708.56
2023-03-28T16:40:14.419Z,99712.97
2023-03-28T16:42:58.634Z,99722.28
2023-03-28T16:45:42.636Z,99733.50
2023-03-28T16:48:27.974Z,99738.34
2023-03-28T16:51:11.756Z,99737.41
2023-03-28T16:53:56.174Z,99740.47
2023-03-28T16:56:40.024Z,99752.59
2023-03-28T16:59:24.011Z,99744.94
2023-03-28T17:02:09.162Z,99751.50
2023-03-28T17:04:54.326Z,99756.22
2023-03-28T17:07:38.135Z,99762.44
2023-03-28T17:10:21.969Z,99763.84
2023-03-28T17:13:05.844Z,99774.69
2023-03-28T17:15:51.298Z,99778.44
2023-03-28T17:18:36.684Z,99784.31
2023-03-28T17:21:21.924Z,99793.97
2023-03-28T17:24:09.250Z,99794.53
2023-03-28T17:26:53.109Z,99775.88
2023-03-28T17:29:37.032Z,99794.53
2023-03-28T17:32:20.948Z,99800.59
2023-03-28T17:35:05.211Z,99760.69
2023-03-28T17:37:52.711Z,99780.81
2023-03-28T17:40:39.516Z,99814.22
2023-03-28T17:43:23.448Z,99805.47
2023-03-28T17:46:07.369Z,99821.28
2023-03-28T17:48:51.374Z,99820.06
2023-03-28T17:51:35.324Z,99826.28
2023-03-28T17:54:20.498Z,99826.06
2023-03-28T17:57:05.033Z,99834.47
2023-03-28T17:59:48.988Z,99843.22
2023-03-28T18:02:32.764Z,99846.16
2023-03-28T18:05:29.080Z,99853.38
2023-03-28T18:08:13.536Z,99853.59
2023-03-28T18:11:02.514Z,99815.53
2023-03-28T18:13:46.802Z,99863.59
2023-03-28T18:16:30.869Z,99866.16
2023-03-28T18:19:18.344Z,99867.81
2023-03-28T18:22:02.589Z,99869.41
2023-03-28T18:24:46.581Z,99857.97
2023-03-28T18:27:32.060Z,99892.34
2023-03-28T18:30:16.002Z,99864.00
2023-03-28T18:33:00.205Z,99900.81
2023-03-28T18:35:44.264Z,99903.06
2023-03-28T18:38:28.227Z,99909.78
2023-03-28T18:41:13.158Z,99920.44
2023-03-28T18:43:58.418Z,99938.91
2023-03-28T18:46:42.336Z,99928.41
2023-03-28T18:49:27.129Z,99940.69
2023-03-28T18:52:11.031Z,99935.84
2023-03-28T18:54:55.338Z,99945.41
2023-03-28T18:57:40.522Z,99944.56
2023-03-28T19:00:26.478Z,99932.09
2023-03-28T19:03:11.086Z,99951.78
2023-03-28T19:05:58.436Z,99948.72
2023-03-28T19:08:42.848Z,99955.63
2023-03-28T19:11:28.345Z,99967.59
2023-03-28T19:14:12.723Z,99938.63
2023-03-28T19:16:58.226Z,99964.41
2023-03-28T19:19:42.333Z,99956.38
2023-03-28T19:22:26.193Z,99976.47
2023-03-28T19:25:11.257Z,99968.28
2023-03-28T19:27:56.369Z,99965.09
2023-03-28T19:30:40.382Z,99967.69
2023-03-28T19:33:25.709Z,99978.75
2023-03-28T19:36:10.234Z,99994.75
2023-03-28T19:38:54.220Z,99936.84
2023-03-28T19:41:38.077Z,99983.97
2023-03-28T19:44:21.835Z,100004.59
2023-03-28T19:47:07.086Z,99991.25
2023-03-28T19:49:52.589Z,99991.50
2023-03-28T19:52:38.264Z,99996.94
2023-03-28T19:55:22.316Z,99991.03
2023-03-28T19:58:07.548Z,100006.94
2023-03-28T20:00:51.557Z,99998.66
2023-03-28T20:03:35.510Z,100010.41
2023-03-28T20:06:22.074Z,100031.63
2023-03-28T20:09:06.199Z,100021.59
2023-03-28T20:11:50.057Z,100036.25
2023-03-28T20:14:33.860Z,100045.41
2023-03-28T20:17:18.375Z,100030.84
2023-03-28T20:20:02.179Z,100054.09
2023-03-28T20:22:47.847Z,100053.56
2023-03-28T20:25:33.132Z,100059.75
2023-03-28T20:28:17.272Z,100071.22
2023-03-28T20:31:01.214Z,100049.06
2023-03-28T20:33:45.349Z,100068.19
2023-03-28T20:36:29.084Z,100035.44
2023-03-28T20:39:15.071Z,100092.03
2023-03-28T20:42:03.039Z,100087.69
2023-03-28T20:44:47.263Z,100099.69
2023-03-28T20:47:31.036Z,100050.88
2023-03-28T20:50:14.835Z,100089.91
2023-03-28T20:52:58.536Z,100115.69
2023-03-28T20:55:43.914Z,100101.56
2023-03-28T20:58:28.484Z,100101.66
2023-03-28T21:01:14.115Z,100106.94
2023-03-28T21:04:00.549Z,100110.69
2023-03-28T21:06:45.132Z,100107.34
2023-03-28T21:09:29.676Z,100110.59
2023-03-28T21:12:14.892Z,100087.16
2023-03-28T21:14:58.553Z,100092.03
2023-03-28T21:17:42.805Z,100096.81
2023-03-28T21:20:27.368Z,100119.88
2023-03-28T21:23:12.228Z,100112.16
2023-03-28T21:25:56.481Z,100115.59
2023-03-28T21:28:42.064Z,100122.03
2023-03-28T21:31:28.113Z,100110.22
2023-03-28T21:34:12.207Z,100099.91
2023-03-28T21:36:55.917Z,100122.97
2023-03-28T21:39:40.063Z,100097.31
2023-03-28T21:42:24.165Z,100099.84
2023-03-28T21:45:11.723Z,100118.50
2023-03-28T21:47:55.583Z,100086.63
2023-03-28T21:50:40.766Z,100115.38
2023-03-28T21:53:24.646Z,100120.91
2023-03-28T21:56:11.541Z,100112.75
2023-03-28T21:58:55.316Z,100085.84
2023-03-28T22:01:40.472Z,100126.78
2023-03-28T22:04:24.271Z,100138.00
2023-03-28T22:07:08.155Z,100133.06
2023-03-28T22:09:51.807Z,100140.28
2023-03-28T22:12:35.584Z,100121.97
2023-03-28T22:15:19.426Z,100122.09
2023-03-28T22:18:09.239Z,100111.63
2023-03-28T22:20:54.064Z,100130.56
2023-03-28T22:23:37.911Z,100135.34
2023-03-28T22:26:21.746Z,100144.19
2023-03-28T22:29:06.149Z,100147.00
2023-03-28T22:31:50.063Z,100155.31
2023-03-28T22:34:36.308Z,100152.31
2023-03-28T22:37:20.097Z,100150.00
2023-03-28T22:40:05.419Z,100158.75
2023-03-28T22:42:49.482Z,100149.84
2023-03-28T22:45:34.106Z,100160.84
2023-03-28T22:48:20.343Z,100149.19
2023-03-28T22:51:11.895Z,100094.28
2023-03-28T22:54:00.455Z,100125.91
2023-03-28T22:56:46.072Z,100126.59
2023-03-28T22:59:30.152Z,100114.34
2023-03-28T23:02:14.231Z,100110.53
2023-03-28T23:04:58.703Z,100131.44
2023-03-28T23:07:44.758Z,100116.50
2023-03-28T23:10:28.960Z,100124.34
2023-03-28T23:13:12.645Z,100118.78
2023-03-28T23:15:56.427Z,100105.31
2023-03-28T23:18:40.143Z,100130.72
2023-03-28T23:21:24.681Z,100151.00
2023-03-28T23:24:11.289Z,100111.38
2023-03-28T23:26:55.239Z,100109.81
2023-03-28T23:29:38.988Z,100160.09
2023-03-28T23:32:22.823Z,100156.81
2023-03-28T23:35:08.204Z,100138.56
2023-03-28T23:37:53.344Z,100143.97
2023-03-28T23:40:38.510Z,100148.22
2023-03-28T23:43:22.352Z,100165.06
2023-03-28T23:46:07.837Z,100091.31
2023-03-28T23:48:52.012Z,100185.06
2023-03-28T23:51:35.809Z,100173.75
2023-03-28T23:54:19.679Z,100183.97
2023-03-28T23:57:05.823Z,100181.03
2023-03-28T23:59:49.631Z,100184.59
